createdAt,value
2018-07-25T00:00:12.350Z,24.96
2018-07-25T00:00:44.354Z,24.95
2018-07-25T00:01:16.384Z,24.94
2018-07-25T00:01:48.378Z,24.94
2018-07-25T00:02:20.392Z,24.94
2018-07-25T00:02:52.390Z,24.93
2018-07-25T00:03:24.393Z,24.92
2018-07-25T00:03:56.407Z,24.91
2018-07-25T00:04:28.430Z,24.91
2018-07-25T00:05:00.461Z,24.90
2018-07-25T00:05:32.473Z,24.91
2018-07-25T00:06:04.482Z,24.90
2018-07-25T00:06:36.514Z,24.90
2018-07-25T00:07:08.528Z,24.90
2018-07-25T00:07:40.548Z,24.88
2018-07-25T00:08:12.561Z,24.89
2018-07-25T00:08:44.574Z,24.88
2018-07-25T00:09:16.580Z,24.87
2018-07-25T00:09:48.585Z,24.86
2018-07-25T00:10:20.594Z,24.85
2018-07-25T00:10:52.601Z,24.84
2018-07-25T00:11:24.616Z,24.83
2018-07-25T00:11:56.643Z,24.82
2018-07-25T00:12:28.682Z,24.82
2018-07-25T00:13:00.696Z,24.81
2018-07-25T00:13:32.703Z,24.79
2018-07-25T00:14:04.722Z,24.79
2018-07-25T00:14:36.735Z,24.77
2018-07-25T00:15:08.777Z,24.76
2018-07-25T00:15:40.778Z,24.76
2018-07-25T00:16:12.786Z,24.78
2018-07-25T00:16:44.802Z,24.78
2018-07-25T00:17:16.827Z,24.77
2018-07-25T00:17:48.837Z,24.78
2018-07-25T00:18:20.874Z,24.79
2018-07-25T00:18:52.897Z,24.78
2018-07-25T00:19:24.933Z,24.77
2018-07-25T00:19:56.951Z,24.77
2018-07-25T00:20:28.972Z,24.77
2018-07-25T00:21:00.987Z,24.77
2018-07-25T00:21:33.010Z,24.78
2018-07-25T00:22:05.019Z,24.76
2018-07-25T00:22:37.050Z,24.76
2018-07-25T00:23:09.068Z,24.75
2018-07-25T00:23:41.079Z,24.75
2018-07-25T00:24:13.092Z,24.75
2018-07-25T00:24:45.108Z,24.74
2018-07-25T00:25:17.102Z,24.75
2018-07-25T00:25:49.128Z,24.76
2018-07-25T00:26:21.134Z,24.76
2018-07-25T00:26:53.151Z,24.76
2018-07-25T00:27:25.186Z,24.75
2018-07-25T00:27:57.198Z,24.75
2018-07-25T00:28:29.227Z,24.75
2018-07-25T00:29:01.251Z,24.75
2018-07-25T00:29:33.258Z,24.74
2018-07-25T00:30:05.327Z,24.74
2018-07-25T00:30:37.303Z,24.72
2018-07-25T00:31:09.349Z,24.73
2018-07-25T00:31:41.406Z,24.73
2018-07-25T00:32:13.411Z,24.72
2018-07-25T00:32:45.422Z,24.73
2018-07-25T00:33:17.455Z,24.71
2018-07-25T00:33:49.461Z,24.71
2018-07-25T00:34:21.476Z,24.71
2018-07-25T00:34:53.505Z,24.68
2018-07-25T00:35:25.513Z,24.66
2018-07-25T00:35:57.514Z,24.66
2018-07-25T00:36:29.530Z,24.66
2018-07-25T00:37:01.568Z,24.67
2018-07-25T00:37:33.579Z,24.67
2018-07-25T00:38:05.582Z,24.69
2018-07-25T00:38:37.590Z,24.70
2018-07-25T00:39:09.602Z,24.71
2018-07-25T00:39:41.626Z,24.71
2018-07-25T00:40:13.657Z,24.72
2018-07-25T00:40:45.729Z,24.73
2018-07-25T00:41:17.734Z,24.73
2018-07-25T00:41:49.753Z,24.73
2018-07-25T00:42:21.765Z,24.74
2018-07-25T00:42:53.793Z,24.75
2018-07-25T00:43:25.851Z,24.75
2018-07-25T00:43:57.870Z,24.74
2018-07-25T00:44:29.908Z,24.73
2018-07-25T00:45:01.928Z,24.72
2018-07-25T00:45:33.945Z,24.71
2018-07-25T00:46:05.947Z,24.71
2018-07-25T00:46:37.962Z,24.72
2018-07-25T00:47:10.043Z,24.73
2018-07-25T00:47:42.053Z,24.73
2018-07-25T00:48:14.060Z,24.74
2018-07-25T00:48:46.080Z,24.76
2018-07-25T00:49:18.090Z,24.77
2018-07-25T00:49:50.093Z,24.78
2018-07-25T00:50:22.128Z,24.77
2018-07-25T00:50:54.130Z,24.78
2018-07-25T00:51:26.130Z,24.75
2018-07-25T00:51:58.148Z,24.74
2018-07-25T00:52:30.166Z,24.73
2018-07-25T00:53:02.174Z,24.73
2018-07-25T00:53:34.192Z,24.73
2018-07-25T00:54:06.217Z,24.72
2018-07-25T00:54:38.243Z,24.73
2018-07-25T00:55:10.264Z,24.71
2018-07-25T00:55:42.265Z,24.72
2018-07-25T00:56:14.285Z,24.70
2018-07-25T00:56:46.285Z,24.69
2018-07-25T00:57:18.294Z,24.66
2018-07-25T00:57:50.299Z,24.66
2018-07-25T00:58:22.342Z,24.64
2018-07-25T00:58:54.356Z,24.63
2018-07-25T00:59:26.363Z,24.63
2018-07-25T00:59:58.369Z,24.62
2018-07-25T01:00:30.392Z,24.62
2018-07-25T01:01:02.406Z,24.62
2018-07-25T01:01:34.441Z,24.60
2018-07-25T01:02:06.433Z,24.60
2018-07-25T01:02:38.454Z,24.60
2018-07-25T01:03:10.453Z,24.60
2018-07-25T01:03:42.469Z,24.60
2018-07-25T01:04:14.483Z,24.61
2018-07-25T01:04:46.493Z,24.62
2018-07-25T01:05:18.504Z,24.62
2018-07-25T01:05:50.507Z,24.63
2018-07-25T01:06:22.522Z,24.64
2018-07-25T01:06:54.532Z,24.65
2018-07-25T01:07:26.572Z,24.64
2018-07-25T01:07:58.582Z,24.63
2018-07-25T01:08:30.599Z,24.63
2018-07-25T01:09:02.598Z,24.63
2018-07-25T01:09:34.622Z,24.63
2018-07-25T01:10:06.625Z,24.64
2018-07-25T01:10:38.642Z,24.65
2018-07-25T01:11:10.649Z,24.66
2018-07-25T01:11:42.727Z,24.66
2018-07-25T01:12:14.694Z,24.69
2018-07-25T01:12:46.727Z,24.71
2018-07-25T01:13:18.744Z,24.72
2018-07-25T01:13:50.792Z,24.73
2018-07-25T01:14:22.789Z,24.73
2018-07-25T01:14:54.803Z,24.73
2018-07-25T01:15:26.813Z,24.72
2018-07-25T01:15:58.822Z,24.72
2018-07-25T01:16:30.865Z,24.72
2018-07-25T01:17:02.860Z,24.71
2018-07-25T01:17:34.873Z,24.72
2018-07-25T01:18:06.881Z,24.71
2018-07-25T01:18:38.958Z,24.71
2018-07-25T01:19:10.973Z,24.70
2018-07-25T01:19:42.987Z,24.70
2018-07-25T01:20:14.993Z,24.69
2018-07-25T01:20:46.998Z,24.67
2018-07-25T01:21:19.013Z,24.66
2018-07-25T01:21:51.036Z,24.66
2018-07-25T01:22:23.049Z,24.66
2018-07-25T01:22:55.062Z,24.66
2018-07-25T01:23:27.083Z,24.64
2018-07-25T01:23:59.174Z,24.64
2018-07-25T01:24:31.182Z,24.64
2018-07-25T01:25:03.204Z,24.62
2018-07-25T01:25:35.202Z,24.62
2018-07-25T01:26:07.219Z,24.60
2018-07-25T01:26:39.234Z,24.62
2018-07-25T01:27:11.238Z,24.60
2018-07-25T01:27:43.249Z,24.60
2018-07-25T01:28:15.264Z,24.60
2018-07-25T01:28:47.284Z,24.61
2018-07-25T01:29:19.293Z,24.63
2018-07-25T01:29:51.308Z,24.65
2018-07-25T01:30:23.325Z,24.65
2018-07-25T01:30:55.348Z,24.66
2018-07-25T01:31:27.359Z,24.69
2018-07-25T01:31:59.368Z,24.67
2018-07-25T01:32:31.370Z,24.68
2018-07-25T01:33:03.389Z,24.69
2018-07-25T01:33:35.402Z,24.67
2018-07-25T01:34:07.411Z,24.66
2018-07-25T01:34:39.421Z,24.66
2018-07-25T01:35:11.433Z,24.65
2018-07-25T01:35:43.429Z,24.64
2018-07-25T01:36:15.459Z,24.64
2018-07-25T01:36:47.471Z,24.65
2018-07-25T01:37:19.482Z,24.65
2018-07-25T01:37:51.497Z,24.64
2018-07-25T01:38:23.509Z,24.64
2018-07-25T01:38:55.620Z,24.65
2018-07-25T01:39:27.590Z,24.64
2018-07-25T01:39:59.617Z,24.65
2018-07-25T01:40:31.623Z,24.63
2018-07-25T01:41:03.635Z,24.62
2018-07-25T01:41:35.654Z,24.62
2018-07-25T01:42:07.671Z,24.63
2018-07-25T01:42:39.688Z,24.63
2018-07-25T01:43:11.702Z,24.64
2018-07-25T01:43:43.731Z,24.65
2018-07-25T01:44:15.752Z,24.63
2018-07-25T01:44:47.766Z,24.64
2018-07-25T01:45:19.783Z,24.62
2018-07-25T01:45:51.794Z,24.61
2018-07-25T01:46:23.807Z,24.60
2018-07-25T01:46:55.814Z,24.60
2018-07-25T01:47:27.818Z,24.59
2018-07-25T01:47:59.833Z,24.58
2018-07-25T01:48:31.834Z,24.59
2018-07-25T01:49:03.855Z,24.59
2018-07-25T01:49:35.863Z,24.60
2018-07-25T01:50:07.880Z,24.60
2018-07-25T01:50:39.885Z,24.59
2018-07-25T01:51:11.886Z,24.61
2018-07-25T01:51:43.908Z,24.61
2018-07-25T01:52:15.985Z,24.60
2018-07-25T01:52:47.966Z,24.60
2018-07-25T01:53:19.989Z,24.59
2018-07-25T01:53:51.997Z,24.60
2018-07-25T01:54:24.011Z,24.60
2018-07-25T01:54:56.019Z,24.59
2018-07-25T01:55:28.031Z,24.60
2018-07-25T01:56:00.197Z,24.60
2018-07-25T01:56:32.214Z,24.60
2018-07-25T01:57:04.235Z,24.61
2018-07-25T01:57:36.253Z,24.59
2018-07-25T01:58:08.252Z,24.60
2018-07-25T01:58:40.255Z,24.60
2018-07-25T01:59:12.278Z,24.58
2018-07-25T01:59:44.297Z,24.58
2018-07-25T02:00:16.299Z,24.56
2018-07-25T02:00:48.308Z,24.55
2018-07-25T02:01:20.387Z,24.54
2018-07-25T02:01:52.344Z,24.51
2018-07-25T02:02:24.363Z,24.50
2018-07-25T02:02:56.377Z,24.50
2018-07-25T02:03:28.408Z,24.51
2018-07-25T02:04:00.434Z,24.49
2018-07-25T02:04:32.438Z,24.49
2018-07-25T02:05:04.456Z,24.49
2018-07-25T02:05:36.507Z,24.49
2018-07-25T02:06:08.558Z,24.50
2018-07-25T02:06:40.575Z,24.50
2018-07-25T02:07:12.582Z,24.52
2018-07-25T02:07:44.615Z,24.52
2018-07-25T02:08:16.681Z,24.53
2018-07-25T02:08:48.635Z,24.53
2018-07-25T02:09:20.674Z,24.55
2018-07-25T02:09:52.717Z,24.56
2018-07-25T02:10:24.790Z,24.58
2018-07-25T02:10:56.799Z,24.58
2018-07-25T02:11:28.817Z,24.58
2018-07-25T02:12:00.823Z,24.57
2018-07-25T02:12:32.841Z,24.56
2018-07-25T02:13:04.850Z,24.56
2018-07-25T02:13:36.862Z,24.55
2018-07-25T02:14:08.869Z,24.54
2018-07-25T02:14:40.881Z,24.53
2018-07-25T02:15:12.895Z,24.52
2018-07-25T02:15:44.897Z,24.51
2018-07-25T02:16:16.911Z,24.49
2018-07-25T02:16:48.912Z,24.49
2018-07-25T02:17:20.934Z,24.46
2018-07-25T02:17:52.972Z,24.47
2018-07-25T02:18:24.980Z,24.47
2018-07-25T02:18:56.981Z,24.47
2018-07-25T02:19:29.110Z,24.46
2018-07-25T02:20:01.049Z,24.45
2018-07-25T02:20:33.053Z,24.44
2018-07-25T02:21:05.082Z,24.43
2018-07-25T02:21:37.094Z,24.42
2018-07-25T02:22:09.134Z,24.41
2018-07-25T02:22:41.151Z,24.39
2018-07-25T02:23:13.163Z,24.39
2018-07-25T02:23:45.184Z,24.40
2018-07-25T02:24:17.199Z,24.41
2018-07-25T02:24:49.205Z,24.39
2018-07-25T02:25:21.218Z,24.37
2018-07-25T02:25:53.259Z,24.36
2018-07-25T02:26:25.268Z,24.36
2018-07-25T02:26:57.291Z,24.37
2018-07-25T02:27:29.318Z,24.39
2018-07-25T02:28:01.325Z,24.38
2018-07-25T02:28:33.341Z,24.40
2018-07-25T02:29:05.349Z,24.40
2018-07-25T02:29:37.425Z,24.40
2018-07-25T02:30:09.418Z,24.40
2018-07-25T02:30:41.441Z,24.42
2018-07-25T02:31:13.451Z,24.43
2018-07-25T02:31:45.464Z,24.43
2018-07-25T02:32:17.501Z,24.42
2018-07-25T02:32:49.500Z,24.43
2018-07-25T02:33:21.508Z,24.45
2018-07-25T02:33:53.531Z,24.45
2018-07-25T02:34:25.543Z,24.45
2018-07-25T02:34:57.564Z,24.44
2018-07-25T02:35:29.569Z,24.45
2018-07-25T02:36:01.563Z,24.45
2018-07-25T02:36:33.582Z,24.44
2018-07-25T02:37:05.598Z,24.45
2018-07-25T02:37:37.619Z,24.45
2018-07-25T02:38:09.645Z,24.44
2018-07-25T02:38:41.637Z,24.43
2018-07-25T02:39:13.645Z,24.43
2018-07-25T02:39:45.662Z,24.43
2018-07-25T02:40:17.711Z,24.43
2018-07-25T02:40:49.722Z,24.43
2018-07-25T02:41:21.736Z,24.43
2018-07-25T02:41:53.738Z,24.42
2018-07-25T02:42:25.759Z,24.41
2018-07-25T02:42:57.734Z,24.41
2018-07-25T02:43:29.757Z,24.41
2018-07-25T02:44:01.763Z,24.41
2018-07-25T02:44:33.781Z,24.41
2018-07-25T02:45:05.855Z,24.43
2018-07-25T02:45:37.864Z,24.42
2018-07-25T02:46:09.873Z,24.42
2018-07-25T02:46:41.902Z,24.44
2018-07-25T02:47:13.911Z,24.44
2018-07-25T02:47:45.920Z,24.44
2018-07-25T02:48:17.930Z,24.44
2018-07-25T02:48:49.953Z,24.43
2018-07-25T02:49:21.962Z,24.44
2018-07-25T02:49:53.971Z,24.43
2018-07-25T02:50:26.010Z,24.41
2018-07-25T02:50:58.025Z,24.40
2018-07-25T02:51:30.040Z,24.41
2018-07-25T02:52:02.047Z,24.40
2018-07-25T02:52:34.063Z,24.39
2018-07-25T02:53:06.081Z,24.39
2018-07-25T02:53:38.110Z,24.39
2018-07-25T02:54:10.113Z,24.40
2018-07-25T02:54:42.138Z,24.39
2018-07-25T02:55:14.143Z,24.36
2018-07-25T02:55:46.160Z,24.36
2018-07-25T02:56:18.162Z,24.37
2018-07-25T02:56:50.180Z,24.36
2018-07-25T02:57:22.182Z,24.36
2018-07-25T02:57:54.199Z,24.36
2018-07-25T02:58:26.218Z,24.36
2018-07-25T02:58:58.214Z,24.34
2018-07-25T02:59:30.255Z,24.35
2018-07-25T03:00:02.660Z,24.34
2018-07-25T03:00:35.181Z,24.33
2018-07-25T03:01:07.661Z,24.31
2018-07-25T03:01:39.643Z,24.32
2018-07-25T03:02:11.663Z,24.31
2018-07-25T03:02:43.668Z,24.32
2018-07-25T03:03:15.676Z,24.31
2018-07-25T03:03:47.688Z,24.31
2018-07-25T03:04:19.696Z,24.31
2018-07-25T03:04:51.712Z,24.30
2018-07-25T03:05:23.722Z,24.31
2018-07-25T03:05:55.734Z,24.31
2018-07-25T03:06:27.743Z,24.31
2018-07-25T03:06:59.753Z,24.30
2018-07-25T03:07:31.796Z,24.30
2018-07-25T03:08:03.850Z,24.31
2018-07-25T03:08:35.869Z,24.29
2018-07-25T03:09:07.974Z,24.31
2018-07-25T03:09:39.900Z,24.32
2018-07-25T03:10:11.937Z,24.32
2018-07-25T03:10:43.963Z,24.33
2018-07-25T03:11:15.980Z,24.33
2018-07-25T03:11:47.997Z,24.35
2018-07-25T03:12:20.020Z,24.36
2018-07-25T03:12:52.018Z,24.35
2018-07-25T03:13:24.099Z,24.35
2018-07-25T03:13:56.110Z,24.37
2018-07-25T03:14:28.119Z,24.35
2018-07-25T03:15:00.141Z,24.34
2018-07-25T03:15:32.137Z,24.36
2018-07-25T03:16:04.160Z,24.36
2018-07-25T03:16:36.218Z,24.39
2018-07-25T03:17:08.187Z,24.39
2018-07-25T03:17:40.210Z,24.39
2018-07-25T03:18:12.211Z,24.36
2018-07-25T03:18:44.239Z,24.35
2018-07-25T03:19:16.252Z,24.35
2018-07-25T03:19:48.275Z,24.34
2018-07-25T03:20:20.304Z,24.33
2018-07-25T03:20:52.312Z,24.33
2018-07-25T03:21:24.337Z,24.32
2018-07-25T03:21:56.332Z,24.32
2018-07-25T03:22:28.352Z,24.32
2018-07-25T03:23:00.362Z,24.31
2018-07-25T03:23:32.363Z,24.31
2018-07-25T03:24:04.377Z,24.29
2018-07-25T03:24:36.390Z,24.28
2018-07-25T03:25:08.437Z,24.27
2018-07-25T03:25:40.451Z,24.28
2018-07-25T03:26:12.702Z,24.28
2018-07-25T03:26:44.678Z,24.27
2018-07-25T03:27:16.689Z,24.26
2018-07-25T03:27:48.711Z,24.27
2018-07-25T03:28:20.723Z,24.27
2018-07-25T03:28:52.726Z,24.26
2018-07-25T03:29:24.804Z,24.28
2018-07-25T03:29:56.805Z,24.28
2018-07-25T03:30:28.829Z,24.28
2018-07-25T03:31:00.845Z,24.30
2018-07-25T03:31:32.888Z,24.31
2018-07-25T03:32:04.878Z,24.33
2018-07-25T03:32:36.896Z,24.34
2018-07-25T03:33:08.909Z,24.34
2018-07-25T03:33:40.918Z,24.34
2018-07-25T03:34:12.931Z,24.36
2018-07-25T03:34:44.956Z,24.36
2018-07-25T03:35:17.019Z,24.37
2018-07-25T03:35:49.025Z,24.38
2018-07-25T03:36:21.030Z,24.40
2018-07-25T03:36:53.055Z,24.42
2018-07-25T03:37:25.079Z,24.41
2018-07-25T03:37:57.074Z,24.41
2018-07-25T03:38:29.087Z,24.41
2018-07-25T03:39:01.112Z,24.41
2018-07-25T03:39:33.115Z,24.40
2018-07-25T03:40:05.125Z,24.40
2018-07-25T03:40:37.138Z,24.40
2018-07-25T03:41:09.155Z,24.39
2018-07-25T03:41:41.186Z,24.39
2018-07-25T03:42:13.187Z,24.37
2018-07-25T03:42:45.221Z,24.37
2018-07-25T03:43:17.230Z,24.35
2018-07-25T03:43:49.244Z,24.33
2018-07-25T03:44:21.250Z,24.33
2018-07-25T03:44:53.258Z,24.32
2018-07-25T03:45:25.325Z,24.31
2018-07-25T03:45:57.296Z,24.31
2018-07-25T03:46:29.315Z,24.31
2018-07-25T03:47:01.328Z,24.31
2018-07-25T03:47:33.336Z,24.32
2018-07-25T03:48:05.341Z,24.29
2018-07-25T03:48:37.353Z,24.29
2018-07-25T03:49:09.359Z,24.30
2018-07-25T03:49:41.375Z,24.30
2018-07-25T03:50:13.395Z,24.30
2018-07-25T03:50:45.423Z,24.29
2018-07-25T03:51:17.422Z,24.29
2018-07-25T03:51:49.457Z,24.28
2018-07-25T03:52:21.474Z,24.29
2018-07-25T03:52:53.496Z,24.29
2018-07-25T03:53:25.588Z,24.30
2018-07-25T03:53:57.569Z,24.30
2018-07-25T03:54:29.570Z,24.30
2018-07-25T03:55:01.602Z,24.30
2018-07-25T03:55:33.628Z,24.30
2018-07-25T03:56:05.655Z,24.31
2018-07-25T03:56:37.667Z,24.32
2018-07-25T03:57:09.689Z,24.33
2018-07-25T03:57:41.755Z,24.33
2018-07-25T03:58:13.778Z,24.32
2018-07-25T03:58:45.787Z,24.33
2018-07-25T03:59:17.803Z,24.33
2018-07-25T03:59:49.824Z,24.32
2018-07-25T04:00:21.851Z,24.31
2018-07-25T04:00:53.860Z,24.31
2018-07-25T04:01:25.888Z,24.29
2018-07-25T04:01:57.978Z,24.28
2018-07-25T04:02:29.990Z,24.26
2018-07-25T04:03:01.987Z,24.26
2018-07-25T04:03:33.994Z,24.26
2018-07-25T04:04:06.015Z,24.24
2018-07-25T04:04:38.038Z,24.25
2018-07-25T04:05:10.051Z,24.24
2018-07-25T04:05:42.095Z,24.24
2018-07-25T04:06:14.092Z,24.23
2018-07-25T04:06:46.104Z,24.25
2018-07-25T04:07:18.117Z,24.30
2018-07-25T04:07:50.130Z,24.35
2018-07-25T04:08:22.173Z,24.37
2018-07-25T04:08:54.185Z,24.37
2018-07-25T04:09:26.247Z,24.34
2018-07-25T04:09:58.331Z,24.32
2018-07-25T04:10:30.334Z,24.30
2018-07-25T04:11:02.355Z,24.29
2018-07-25T04:11:34.358Z,24.31
2018-07-25T04:12:06.367Z,24.31
2018-07-25T04:12:38.386Z,24.30
2018-07-25T04:13:10.390Z,24.29
2018-07-25T04:13:42.433Z,24.26
2018-07-25T04:14:14.438Z,24.29
2018-07-25T04:14:46.462Z,24.29
2018-07-25T04:15:18.484Z,24.29
2018-07-25T04:15:50.528Z,24.27
2018-07-25T04:16:22.535Z,24.25
2018-07-25T04:16:54.566Z,24.24
2018-07-25T04:17:26.585Z,24.21
2018-07-25T04:17:58.594Z,24.11
2018-07-25T04:18:30.609Z,24.02
2018-07-25T04:19:02.610Z,23.89
2018-07-25T04:19:34.618Z,23.79
2018-07-25T04:20:06.632Z,23.71
2018-07-25T04:20:38.650Z,23.59
2018-07-25T04:21:10.680Z,23.52
2018-07-25T04:21:42.689Z,23.42
2018-07-25T04:22:14.704Z,23.37
2018-07-25T04:22:46.727Z,23.34
2018-07-25T04:23:18.798Z,23.31
2018-07-25T04:23:50.831Z,23.27
2018-07-25T04:24:22.865Z,23.24
2018-07-25T04:24:54.880Z,23.24
2018-07-25T04:25:26.917Z,23.21
2018-07-25T04:25:58.964Z,23.15
2018-07-25T04:26:30.995Z,23.15
2018-07-25T04:27:03.010Z,23.14
2018-07-25T04:27:35.016Z,23.17
2018-07-25T04:28:07.039Z,23.14
2018-07-25T04:28:39.141Z,23.10
2018-07-25T04:29:11.141Z,23.11
2018-07-25T04:29:43.162Z,23.10
2018-07-25T04:30:15.166Z,23.13
2018-07-25T04:30:47.269Z,23.13
2018-07-25T04:31:19.272Z,23.09
2018-07-25T04:31:51.297Z,23.06
2018-07-25T04:32:23.302Z,23.06
2018-07-25T04:32:55.332Z,23.07
2018-07-25T04:33:27.333Z,23.07
2018-07-25T04:33:59.350Z,23.06
2018-07-25T04:34:31.383Z,23.06
2018-07-25T04:35:03.403Z,23.06
2018-07-25T04:35:35.424Z,23.06
2018-07-25T04:36:07.445Z,23.06
2018-07-25T04:36:39.460Z,23.05
2018-07-25T04:37:11.479Z,23.04
2018-07-25T04:37:43.541Z,23.04
2018-07-25T04:38:15.550Z,23.05
2018-07-25T04:38:47.584Z,23.07
2018-07-25T04:39:19.616Z,23.04
2018-07-25T04:39:51.619Z,23.05
2018-07-25T04:40:23.632Z,23.06
2018-07-25T04:40:55.642Z,23.05
2018-07-25T04:41:27.645Z,23.04
2018-07-25T04:41:59.660Z,23.04
2018-07-25T04:42:31.735Z,23.04
2018-07-25T04:43:03.766Z,23.06
2018-07-25T04:43:35.790Z,23.13
2018-07-25T04:44:07.805Z,23.24
2018-07-25T04:44:39.856Z,23.37
2018-07-25T04:45:11.893Z,23.48
2018-07-25T04:45:43.936Z,23.58
2018-07-25T04:46:15.956Z,23.65
2018-07-25T04:46:47.996Z,23.72
2018-07-25T04:47:19.961Z,23.76
2018-07-25T04:47:51.969Z,23.80
2018-07-25T04:48:23.977Z,23.84
2018-07-25T04:48:55.983Z,23.86
2018-07-25T04:49:27.993Z,23.87
2018-07-25T04:50:00.010Z,23.88
2018-07-25T04:50:32.094Z,23.88
2018-07-25T04:51:04.198Z,23.90
2018-07-25T04:51:36.231Z,23.90
2018-07-25T04:52:08.337Z,23.91
2018-07-25T04:52:40.355Z,23.92
2018-07-25T04:53:12.361Z,23.93
2018-07-25T04:53:44.377Z,23.94
2018-07-25T04:54:16.400Z,23.94
2018-07-25T04:54:48.406Z,23.94
2018-07-25T04:55:20.446Z,23.96
2018-07-25T04:55:52.463Z,23.96
2018-07-25T04:56:24.498Z,23.95
2018-07-25T04:56:56.801Z,23.96
2018-07-25T04:57:28.849Z,23.97
2018-07-25T04:58:00.862Z,23.97
2018-07-25T04:58:32.885Z,23.97
2018-07-25T04:59:05.009Z,23.96
2018-07-25T04:59:37.004Z,23.96
2018-07-25T05:00:09.019Z,23.96
2018-07-25T05:00:41.034Z,23.95
2018-07-25T05:01:13.071Z,23.94
2018-07-25T05:01:45.166Z,23.95
2018-07-25T05:02:17.156Z,23.96
2018-07-25T05:02:49.171Z,23.97
2018-07-25T05:03:21.182Z,23.96
2018-07-25T05:03:53.195Z,23.95
2018-07-25T05:04:25.206Z,23.95
2018-07-25T05:04:57.290Z,23.97
2018-07-25T05:05:29.393Z,23.96
2018-07-25T05:06:01.393Z,23.96
2018-07-25T05:06:33.441Z,23.96
2018-07-25T05:07:05.482Z,23.95
2018-07-25T05:07:37.454Z,23.95
2018-07-25T05:08:09.467Z,23.94
2018-07-25T05:08:41.479Z,23.95
2018-07-25T05:09:13.489Z,23.95
2018-07-25T05:09:45.502Z,23.94
2018-07-25T05:10:17.519Z,23.95
2018-07-25T05:10:49.537Z,23.96
2018-07-25T05:11:21.566Z,23.97
2018-07-25T05:11:53.585Z,23.97
2018-07-25T05:12:25.653Z,23.97
2018-07-25T05:12:57.619Z,23.98
2018-07-25T05:13:29.649Z,23.98
2018-07-25T05:14:01.674Z,23.97
2018-07-25T05:14:33.682Z,23.98
2018-07-25T05:15:05.709Z,23.98
2018-07-25T05:15:37.710Z,23.98
2018-07-25T05:16:09.759Z,23.98
2018-07-25T05:16:41.790Z,23.98
2018-07-25T05:17:13.805Z,24.00
2018-07-25T05:17:45.863Z,24.00
2018-07-25T05:18:17.858Z,24.01
2018-07-25T05:18:49.867Z,24.00
2018-07-25T05:19:21.882Z,24.01
2018-07-25T05:19:53.888Z,24.01
2018-07-25T05:20:25.899Z,24.02
2018-07-25T05:20:57.922Z,24.03
2018-07-25T05:21:29.999Z,24.03
2018-07-25T05:22:02.021Z,24.02
2018-07-25T05:22:34.043Z,24.01
2018-07-25T05:23:06.102Z,24.01
2018-07-25T05:23:38.062Z,23.98
2018-07-25T05:24:10.462Z,23.98
2018-07-25T05:24:42.354Z,23.99
2018-07-25T05:25:14.367Z,23.98
2018-07-25T05:25:46.379Z,23.98
2018-07-25T05:26:18.394Z,23.99
2018-07-25T05:26:50.403Z,23.99
2018-07-25T05:27:22.414Z,23.99
2018-07-25T05:27:54.442Z,23.99
2018-07-25T05:28:26.437Z,24.00
2018-07-25T05:28:58.458Z,23.98
2018-07-25T05:29:30.474Z,23.97
2018-07-25T05:30:02.486Z,23.96
2018-07-25T05:30:34.876Z,23.95
2018-07-25T05:31:06.779Z,23.95
2018-07-25T05:31:38.777Z,23.96
2018-07-25T05:32:10.785Z,23.95
2018-07-25T05:32:42.828Z,23.95
2018-07-25T05:33:14.882Z,23.94
2018-07-25T05:33:46.890Z,23.95
2018-07-25T05:34:18.904Z,23.96
2018-07-25T05:34:50.921Z,23.96
2018-07-25T05:35:22.933Z,23.95
2018-07-25T05:35:54.963Z,23.94
2018-07-25T05:36:26.979Z,23.93
2018-07-25T05:36:58.990Z,23.91
2018-07-25T05:37:30.998Z,23.91
2018-07-25T05:38:03.048Z,23.90
2018-07-25T05:38:35.033Z,23.89
2018-07-25T05:39:07.043Z,23.89
2018-07-25T05:39:39.050Z,23.89
2018-07-25T05:40:11.065Z,23.89
2018-07-25T05:40:43.071Z,23.91
2018-07-25T05:41:15.088Z,23.91
2018-07-25T05:41:47.115Z,23.92
2018-07-25T05:42:19.122Z,23.92
2018-07-25T05:42:51.147Z,23.94
2018-07-25T05:43:23.169Z,23.94
2018-07-25T05:43:55.208Z,23.94
2018-07-25T05:44:27.184Z,23.95
2018-07-25T05:44:59.194Z,23.96
2018-07-25T05:45:31.202Z,23.98
2018-07-25T05:46:03.219Z,23.98
2018-07-25T05:46:35.223Z,23.98
2018-07-25T05:47:07.453Z,23.97
2018-07-25T05:47:39.466Z,23.98
2018-07-25T05:48:11.489Z,23.97
2018-07-25T05:48:44.174Z,23.96
2018-07-25T05:49:16.285Z,23.96
2018-07-25T05:49:48.251Z,23.97
2018-07-25T05:50:20.314Z,23.97
2018-07-25T05:50:52.317Z,23.98
2018-07-25T05:51:24.329Z,23.98
2018-07-25T05:51:56.334Z,23.98
2018-07-25T05:52:28.357Z,23.97
2018-07-25T05:53:00.372Z,23.98
2018-07-25T05:53:32.379Z,23.98
2018-07-25T05:54:04.405Z,23.98
2018-07-25T05:54:36.424Z,23.97
2018-07-25T05:55:08.433Z,23.96
2018-07-25T05:55:40.444Z,23.96
2018-07-25T05:56:12.452Z,23.97
2018-07-25T05:56:44.507Z,23.95
2018-07-25T05:57:16.488Z,23.94
2018-07-25T05:57:48.497Z,23.95
2018-07-25T05:58:20.530Z,23.95
2018-07-25T05:58:52.562Z,23.96
2018-07-25T05:59:24.563Z,23.96
2018-07-25T05:59:56.581Z,23.97
2018-07-25T06:00:28.591Z,23.96
2018-07-25T06:01:00.602Z,23.98
2018-07-25T06:01:32.609Z,23.99
2018-07-25T06:02:04.636Z,23.99
2018-07-25T06:02:36.653Z,24.00
2018-07-25T06:03:08.685Z,24.00
2018-07-25T06:03:40.746Z,24.02
2018-07-25T06:04:12.791Z,24.02
2018-07-25T06:04:44.792Z,24.03
2018-07-25T06:05:16.806Z,24.02
2018-07-25T06:05:48.853Z,24.03
2018-07-25T06:06:20.836Z,24.04
2018-07-25T06:06:52.867Z,24.04
2018-07-25T06:07:24.862Z,24.05
2018-07-25T06:07:56.892Z,24.05
2018-07-25T06:08:28.900Z,24.07
2018-07-25T06:09:00.920Z,24.08
2018-07-25T06:09:32.956Z,24.08
2018-07-25T06:10:04.958Z,24.07
2018-07-25T06:10:37.061Z,24.07
2018-07-25T06:11:09.053Z,24.05
2018-07-25T06:11:41.064Z,24.05
2018-07-25T06:12:13.107Z,24.04
2018-07-25T06:12:45.169Z,24.04
2018-07-25T06:13:17.134Z,24.05
2018-07-25T06:13:49.157Z,24.05
2018-07-25T06:14:21.234Z,24.09
2018-07-25T06:14:53.183Z,24.07
2018-07-25T06:15:25.197Z,24.04
2018-07-25T06:15:57.205Z,24.05
2018-07-25T06:16:29.238Z,24.07
2018-07-25T06:17:01.250Z,24.08
2018-07-25T06:17:33.275Z,24.08
2018-07-25T06:18:05.284Z,24.09
2018-07-25T06:18:37.308Z,24.12
2018-07-25T06:19:09.325Z,24.13
2018-07-25T06:19:41.344Z,24.12
2018-07-25T06:20:13.365Z,24.13
2018-07-25T06:20:45.377Z,24.13
2018-07-25T06:21:17.394Z,24.12
2018-07-25T06:21:49.401Z,24.12
2018-07-25T06:22:21.414Z,24.10
2018-07-25T06:22:53.427Z,24.10
2018-07-25T06:23:25.439Z,24.08
2018-07-25T06:23:57.457Z,24.08
2018-07-25T06:24:29.465Z,24.10
2018-07-25T06:25:01.522Z,24.11
2018-07-25T06:25:33.514Z,24.13
2018-07-25T06:26:05.532Z,24.12
2018-07-25T06:26:37.546Z,24.09
2018-07-25T06:27:09.559Z,24.10
2018-07-25T06:27:41.567Z,24.10
2018-07-25T06:28:13.577Z,24.09
2018-07-25T06:28:45.589Z,24.10
2018-07-25T06:29:17.596Z,24.10
2018-07-25T06:29:49.610Z,24.10
2018-07-25T06:30:21.617Z,24.10
2018-07-25T06:30:53.643Z,24.13
2018-07-25T06:31:25.712Z,24.13
2018-07-25T06:31:58.062Z,24.14
2018-07-25T06:32:29.964Z,24.13
2018-07-25T06:33:01.970Z,24.14
2018-07-25T06:33:33.978Z,24.14
2018-07-25T06:34:06.001Z,24.15
2018-07-25T06:34:38.023Z,24.14
2018-07-25T06:35:10.023Z,24.14
2018-07-25T06:35:42.051Z,24.14
2018-07-25T06:36:14.055Z,24.15
2018-07-25T06:36:46.071Z,24.17
2018-07-25T06:37:18.088Z,24.19
2018-07-25T06:37:50.302Z,24.19
2018-07-25T06:38:22.261Z,24.18
2018-07-25T06:38:54.280Z,24.18
2018-07-25T06:39:26.367Z,24.20
2018-07-25T06:39:58.394Z,24.21
2018-07-25T06:40:30.395Z,24.21
2018-07-25T06:41:02.408Z,24.20
2018-07-25T06:41:34.439Z,24.20
2018-07-25T06:42:06.441Z,24.19
2018-07-25T06:42:38.456Z,24.19
2018-07-25T06:43:10.468Z,24.20
2018-07-25T06:43:42.527Z,24.19
2018-07-25T06:44:14.482Z,24.19
2018-07-25T06:44:46.531Z,24.18
2018-07-25T06:45:18.509Z,24.18
2018-07-25T06:45:50.532Z,24.19
2018-07-25T06:46:22.543Z,24.20
2018-07-25T06:46:54.550Z,24.20
2018-07-25T06:47:26.566Z,24.20
2018-07-25T06:47:58.581Z,24.20
2018-07-25T06:48:30.616Z,24.20
2018-07-25T06:49:02.623Z,24.21
2018-07-25T06:49:34.641Z,24.19
2018-07-25T06:50:06.651Z,24.20
2018-07-25T06:50:38.671Z,24.22
2018-07-25T06:51:10.674Z,24.22
2018-07-25T06:51:42.691Z,24.22
2018-07-25T06:52:14.701Z,24.21